Time;durP1;ratioP1;P1;durP2;ratioP2;P2;SDS_P1;SDS_P2;PMS_P1;PMS_P2;Temp;Humidity;BMP_temperature;BMP_pressure;BME280_temperature;BME280_humidity;BME280_pressure;Samples;Min_cycle;Max_cycle;Signal;HPM_P1;HPM_P2
2021/10/14 00:00:04;;;;;;;87.42;30.97;;;;;;;13.99;100.00;100212.00;1659731;84;21053;-84
2021/10/14 00:02:31;;;;;;;80.97;30.92;;;;;;;13.97;100.00;100213.66;1664228;84;21101;-83
2021/10/14 00:04:57;;;;;;;92.47;31.85;;;;;;;13.96;100.00;100213.94;1664205;84;21303;-83
2021/10/14 00:07:23;;;;;;;94.07;31.48;;;;;;;13.97;100.00;100216.37;1664150;84;21093;-82
2021/10/14 00:09:49;;;;;;;79.15;30.20;;;;;;;13.97;100.00;100217.72;1663812;84;20955;-82
2021/10/14 00:12:15;;;;;;;98.87;32.55;;;;;;;13.98;100.00;100220.68;1664169;86;20942;-82
2021/10/14 00:14:40;;;;;;;85.45;32.75;;;;;;;13.97;100.00;100220.95;1664170;84;20916;-82
2021/10/14 00:17:06;;;;;;;87.85;31.80;;;;;;;13.96;100.00;100225.58;1664329;84;21033;-81
2021/10/14 00:19:32;;;;;;;86.00;31.27;;;;;;;13.93;100.00;100215.32;1664312;84;20997;-83
2021/10/14 00:22:00;;;;;;;82.40;29.98;;;;;;;13.91;100.00;100218.86;1664244;84;21026;-82
2021/10/14 00:24:26;;;;;;;101.87;31.80;;;;;;;13.89;100.00;100219.72;1664019;84;21002;-82
2021/10/14 00:26:52;;;;;;;85.07;29.65;;;;;;;13.91;100.00;100220.22;1664450;85;20875;-83
2021/10/14 00:29:18;;;;;;;99.35;31.70;;;;;;;13.92;100.00;100223.75;1662961;84;21171;-82
2021/10/14 00:31:44;;;;;;;80.65;30.70;;;;;;;13.91;100.00;100226.98;1637146;86;21696;-82
2021/10/14 00:34:10;;;;;;;73.12;29.80;;;;;;;13.95;100.00;100229.39;1637101;86;20879;-82
2021/10/14 00:36:35;;;;;;;73.47;29.27;;;;;;;13.97;100.00;100229.08;1637321;86;20939;-82
2021/10/14 00:39:02;;;;;;;79.10;30.20;;;;;;;13.97;100.00;100233.98;1637294;86;20919;-82
2021/10/14 00:41:30;;;;;;;76.17;29.55;;;;;;;13.98;100.00;100236.94;1636931;86;21223;-82
2021/10/14 00:43:58;;;;;;;92.08;29.92;;;;;;;14.01;100.00;100238.26;1565763;91;21134;-83
2021/10/14 00:46:24;;;;;;;82.02;28.83;;;;;;;14.02;100.00;100240.66;1546222;91;21082;-82
2021/10/14 00:48:52;;;;;;;75.12;29.20;;;;;;;13.99;100.00;100238.53;1553977;91;21059;-82
2021/10/14 00:51:18;;;;;;;81.63;28.95;;;;;;;13.99;100.00;100237.73;1566100;91;21066;-83
2021/10/14 00:53:47;;;;;;;76.80;28.20;;;;;;;13.98;100.00;100241.55;1566048;91;21096;-83
2021/10/14 00:56:15;;;;;;;72.78;27.70;;;;;;;13.97;100.00;100244.81;1565906;91;21102;-83
2021/10/14 00:58:41;;;;;;;82.50;28.02;;;;;;;13.96;100.00;100249.95;1567044;89;21522;-83
2021/10/14 01:01:07;;;;;;;75.55;27.42;;;;;;;13.94;100.00;100251.34;1566288;91;21082;-83
2021/10/14 01:03:34;;;;;;;72.37;27.67;;;;;;;13.92;100.00;100254.91;1566435;91;21150;-83
2021/10/14 01:06:00;;;;;;;80.53;27.70;;;;;;;13.93;100.00;100257.86;1565859;91;21227;-82
2021/10/14 01:08:26;;;;;;;77.32;28.65;;;;;;;13.93;100.00;100258.66;1565957;91;21563;-82
2021/10/14 01:10:52;;;;;;;89.32;29.52;;;;;;;13.91;100.00;100264.11;1566171;91;20955;-83
2021/10/14 01:13:19;;;;;;;86.35;29.10;;;;;;;13.88;100.00;100270.11;1566209;91;21093;-83
2021/10/14 01:15:45;;;;;;;87.62;31.02;;;;;;;13.87;100.00;100266.59;1566111;91;21130;-82
2021/10/14 01:18:14;;;;;;;76.07;31.52;;;;;;;13.84;100.00;100265.83;1565788;91;22400;-83
2021/10/14 01:20:41;;;;;;;85.45;30.02;;;;;;;13.81;100.00;100265.85;1565716;91;21070;-83
2021/10/14 01:23:07;;;;;;;82.90;32.10;;;;;;;13.79;100.00;100264.52;1566003;91;21083;-84
2021/10/14 01:25:33;;;;;;;83.95;32.88;;;;;;;13.78;100.00;100269.70;1565940;91;21124;-84
2021/10/14 01:27:59;;;;;;;81.92;31.65;;;;;;;13.75;100.00;100272.98;1566055;91;21133;-83
2021/10/14 01:30:25;;;;;;;89.92;33.90;;;;;;;13.72;100.00;100277.63;1566173;91;21092;-83
2021/10/14 01:32:51;;;;;;;78.52;33.85;;;;;;;13.70;100.00;100278.45;1566001;91;21510;-83
2021/10/14 01:35:18;;;;;;;77.87;35.48;;;;;;;13.69;100.00;100279.55;1566220;91;21000;-83
2021/10/14 01:37:45;;;;;;;87.47;35.13;;;;;;;13.70;100.00;100283.86;1566521;90;21098;-83
2021/10/14 01:40:12;;;;;;;82.65;34.45;;;;;;;13.69;100.00;100286.33;1584562;87;21101;-83
2021/10/14 01:42:39;;;;;;;83.33;35.23;;;;;;;13.71;100.00;100289.56;1639786;86;21121;-83
2021/10/14 01:45:06;;;;;;;84.15;36.83;;;;;;;13.69;100.00;100291.73;1639514;86;21014;-82
2021/10/14 01:47:34;;;;;;;85.12;35.63;;;;;;;13.63;100.00;100292.34;1639837;86;20970;-82
2021/10/14 01:50:00;;;;;;;76.82;36.65;;;;;;;13.59;100.00;100302.14;1615533;86;21081;-83
2021/10/14 01:52:26;;;;;;;80.07;35.95;;;;;;;13.52;100.00;100305.72;1639463;86;20887;-83
2021/10/14 01:54:52;;;;;;;79.82;36.35;;;;;;;13.51;100.00;100314.39;1639624;86;21696;-83
2021/10/14 01:57:17;;;;;;;76.97;36.60;;;;;;;13.50;100.00;100311.44;1639360;86;21166;-83
2021/10/14 01:59:43;;;;;;;77.85;35.23;;;;;;;13.47;100.00;100320.12;1639228;87;20930;-83
2021/10/14 02:02:09;;;;;;;78.80;36.45;;;;;;;13.42;100.00;100324.23;1639416;86;20918;-83
2021/10/14 02:04:35;;;;;;;76.45;33.92;;;;;;;13.39;100.00;100328.31;1639549;86;20998;-82
2021/10/14 02:07:01;;;;;;;78.90;35.40;;;;;;;13.35;100.00;100325.09;1639539;86;21178;-82
2021/10/14 02:09:27;;;;;;;81.45;35.23;;;;;;;13.30;100.00;100334.08;1639377;86;21695;-82
2021/10/14 02:11:53;;;;;;;82.17;36.48;;;;;;;13.28;100.00;100339.52;1639645;86;20934;-82
2021/10/14 02:14:19;;;;;;;74.12;32.93;;;;;;;13.25;100.00;100341.41;1639600;86;20922;-82
2021/10/14 02:16:44;;;;;;;83.67;35.15;;;;;;;13.19;100.00;100347.40;1639500;86;21037;-83
2021/10/14 02:19:10;;;;;;;91.65;34.90;;;;;;;13.15;100.00;100345.81;1614265;87;21113;-83
2021/10/14 02:21:36;;;;;;;79.75;34.20;;;;;;;13.11;100.00;100352.06;1639368;86;20982;-82
2021/10/14 02:24:02;;;;;;;81.63;33.80;;;;;;;13.09;100.00;100354.26;1639503;86;21740;-83
2021/10/14 02:26:28;;;;;;;80.20;33.10;;;;;;;13.04;100.00;100363.20;1639370;86;21550;-82
2021/10/14 02:28:54;;;;;;;72.90;31.15;;;;;;;13.01;100.00;100376.49;1639662;86;20962;-83
2021/10/14 02:31:22;;;;;;;54.50;22.32;;;;;;;13.00;100.00;100383.80;1639857;86;21169;-82
2021/10/14 02:33:48;;;;;;;32.80;15.15;;;;;;;12.94;100.00;100390.31;1566377;91;21067;-82
2021/10/14 02:36:14;;;;;;;25.15;12.33;;;;;;;12.81;100.00;100393.66;1566353;91;20967;-82
2021/10/14 02:38:40;;;;;;;23.12;10.85;;;;;;;12.65;100.00;100392.94;1564618;90;21554;-82
2021/10/14 02:41:06;;;;;;;19.90;10.80;;;;;;;12.55;100.00;100401.09;1564222;91;20983;-83
2021/10/14 02:43:32;;;;;;;19.00;9.98;;;;;;;12.43;100.00;100399.50;1564351;91;21116;-83
2021/10/14 02:45:58;;;;;;;17.85;9.78;;;;;;;12.34;100.00;100409.82;1564482;91;21009;-84
2021/10/14 02:48:23;;;;;;;18.15;9.93;;;;;;;12.25;100.00;100402.83;1574850;88;20896;-83
2021/10/14 02:50:49;;;;;;;18.27;9.70;;;;;;;12.16;100.00;100402.59;1590640;90;20891;-84
2021/10/14 02:53:15;;;;;;;18.50;10.32;;;;;;;12.09;100.00;100410.18;1590370;90;20998;-84
2021/10/14 02:55:41;;;;;;;19.07;9.53;;;;;;;12.05;100.00;100409.89;1590403;90;21146;-82
2021/10/14 02:58:07;;;;;;;20.88;9.90;;;;;;;11.99;100.00;100415.05;1590238;89;20917;-83
2021/10/14 03:00:33;;;;;;;18.55;9.15;;;;;;;11.93;100.00;100418.03;1590442;90;20887;-84
2021/10/14 03:02:59;;;;;;;16.82;8.68;;;;;;;11.87;100.00;100432.09;1590391;90;20911;-82
2021/10/14 03:05:24;;;;;;;17.98;7.92;;;;;;;11.83;100.00;100438.55;1590174;90;20899;-83
2021/10/14 03:07:50;;;;;;;15.85;7.90;;;;;;;11.78;100.00;100439.89;1590356;89;21807;-84
2021/10/14 03:10:16;;;;;;;15.25;7.87;;;;;;;11.73;100.00;100452.03;1590038;90;20907;-83
2021/10/14 03:12:42;;;;;;;15.30;7.65;;;;;;;11.70;100.00;100452.58;1586781;90;20919;-84
2021/10/14 03:15:08;;;;;;;16.40;8.00;;;;;;;11.65;100.00;100455.30;1590319;90;20975;-84
2021/10/14 03:17:34;;;;;;;16.17;7.67;;;;;;;11.63;100.00;100453.95;1590203;90;21121;-85
2021/10/14 03:20:00;;;;;;;13.58;7.20;;;;;;;11.57;100.00;100454.48;1590269;90;21625;-84
2021/10/14 03:22:26;;;;;;;12.73;6.17;;;;;;;11.58;100.00;100460.14;1589892;89;20993;-84
2021/10/14 03:24:52;;;;;;;13.03;7.00;;;;;;;11.58;100.00;100469.05;1590198;90;20965;-84
2021/10/14 03:27:18;;;;;;;11.22;5.78;;;;;;;11.54;100.00;100472.02;1590224;90;21606;-83
2021/10/14 03:29:44;;;;;;;12.23;6.42;;;;;;;11.49;100.00;100463.91;1598060;86;21114;-84
2021/10/14 03:32:09;;;;;;;10.65;5.67;;;;;;;11.47;100.00;100475.54;1655428;84;21144;-84
2021/10/14 03:34:36;;;;;;;15.08;5.60;;;;;;;11.46;100.00;100482.54;1658415;84;20986;-83
2021/10/14 03:37:02;;;;;;;7.40;4.55;;;;;;;11.42;100.00;100489.56;1663262;84;21079;-84
2021/10/14 03:39:27;;;;;;;9.98;4.70;;;;;;;11.38;100.00;100487.91;1664189;84;21082;-83
2021/10/14 03:41:53;;;;;;;7.90;4.60;;;;;;;11.36;100.00;100492.78;1664615;84;21034;-83
2021/10/14 03:44:19;;;;;;;5.95;3.80;;;;;;;11.32;100.00;100498.42;1664417;84;21191;-83
2021/10/14 03:46:45;;;;;;;6.62;4.12;;;;;;;11.28;100.00;100507.59;1664313;84;20986;-83
2021/10/14 03:49:11;;;;;;;5.72;3.67;;;;;;;11.24;100.00;100509.22;1663972;84;20903;-83
2021/10/14 03:51:37;;;;;;;5.62;3.27;;;;;;;11.22;100.00;100525.39;1664078;84;20983;-83
2021/10/14 03:54:04;;;;;;;4.37;2.85;;;;;;;11.18;100.00;100529.17;1664329;84;21121;-84
2021/10/14 03:56:30;;;;;;;4.20;2.90;;;;;;;11.18;100.00;100539.12;1664120;84;21123;-83
2021/10/14 03:58:55;;;;;;;4.87;3.15;;;;;;;11.10;100.00;100539.91;1660261;84;21605;-82
2021/10/14 04:01:21;;;;;;;4.12;2.85;;;;;;;11.09;100.00;100542.89;1652261;84;21376;-83
2021/10/14 04:03:47;;;;;;;3.55;2.40;;;;;;;11.04;100.00;100545.56;1645589;86;20971;-83
2021/10/14 04:06:13;;;;;;;3.58;2.30;;;;;;;10.99;100.00;100554.97;1643398;86;21094;-82
2021/10/14 04:08:39;;;;;;;4.42;2.08;;;;;;;10.93;100.00;100558.72;1637493;86;21178;-83
2021/10/14 04:11:05;;;;;;;2.10;1.90;;;;;;;10.88;100.00;100560.84;1637175;87;20971;-82
2021/10/14 04:13:31;;;;;;;2.75;1.80;;;;;;;10.82;100.00;100558.66;1637536;86;20936;-83
2021/10/14 04:15:56;;;;;;;3.58;2.05;;;;;;;10.83;100.00;100570.28;1637400;86;21047;-82
2021/10/14 04:18:22;;;;;;;2.50;1.65;;;;;;;10.80;100.00;100570.80;1637193;86;20924;-82
2021/10/14 04:20:48;;;;;;;2.72;1.87;;;;;;;10.78;100.00;100580.48;1637433;86;21150;-82
2021/10/14 04:23:17;;;;;;;1.77;1.60;;;;;;;10.75;100.00;100595.03;1637220;86;20990;-83
2021/10/14 04:25:42;;;;;;;3.25;1.50;;;;;;;10.73;100.00;100587.73;1636987;86;21071;-82
2021/10/14 04:28:08;;;;;;;3.45;1.70;;;;;;;10.69;100.00;100603.08;1637476;86;20913;-85
2021/10/14 04:30:34;;;;;;;2.70;2.00;;;;;;;10.67;100.00;100604.41;1637290;86;21292;-84
2021/10/14 04:33:00;;;;;;;3.65;1.50;;;;;;;10.65;100.00;100610.61;1645339;84;21206;-83
2021/10/14 04:35:26;;;;;;;2.47;1.40;;;;;;;10.67;100.00;100615.99;1664654;84;21133;-83
2021/10/14 04:37:52;;;;;;;3.55;1.62;;;;;;;10.65;100.00;100616.80;1663359;84;21034;-82
2021/10/14 04:40:18;;;;;;;1.82;1.40;;;;;;;10.64;100.00;100627.30;1641408;86;20959;-82
2021/10/14 04:42:44;;;;;;;2.67;1.60;;;;;;;10.59;100.00;100638.05;1641357;86;21070;-82
2021/10/14 04:45:11;;;;;;;2.90;1.77;;;;;;;10.56;100.00;100646.66;1641274;86;21192;-82
2021/10/14 04:47:37;;;;;;;2.45;1.52;;;;;;;10.56;100.00;100649.35;1626004;87;21011;-82
2021/10/14 04:50:04;;;;;;;3.67;1.90;;;;;;;10.54;100.00;100661.45;1648338;86;21566;-82
2021/10/14 04:52:31;;;;;;;2.95;2.00;;;;;;;10.53;100.00;100667.89;1641361;86;21015;-82
2021/10/14 04:54:57;;;;;;;2.83;1.80;;;;;;;10.54;100.00;100669.54;1626262;87;21038;-82
2021/10/14 04:57:23;;;;;;;4.72;1.80;;;;;;;10.52;100.00;100680.56;1626404;87;22029;-82
2021/10/14 04:59:49;;;;;;;3.80;2.52;;;;;;;10.50;100.00;100688.11;1638590;87;21019;-82
2021/10/14 05:02:14;;;;;;;3.92;2.37;;;;;;;10.51;100.00;100697.80;1640813;87;20919;-82
2021/10/14 05:04:40;;;;;;;9.33;5.60;;;;;;;10.53;100.00;100706.45;1641264;87;21001;-82
2021/10/14 05:07:07;;;;;;;7.60;4.90;;;;;;;10.49;100.00;100705.33;1641402;86;21062;-82
2021/10/14 05:09:33;;;;;;;8.38;4.40;;;;;;;10.45;100.00;100714.46;1641577;87;21090;-83
2021/10/14 05:11:59;;;;;;;9.60;4.83;;;;;;;10.43;100.00;100720.62;1641271;86;21696;-80
2021/10/14 05:14:25;;;;;;;9.40;5.30;;;;;;;10.38;100.00;100730.55;1641398;87;21610;-82
2021/10/14 05:16:51;;;;;;;9.95;5.35;;;;;;;10.29;100.00;100735.58;1641287;86;21007;-83
2021/10/14 05:19:20;;;;;;;12.18;6.47;;;;;;;10.23;100.00;100743.30;1641378;86;20907;-82
2021/10/14 05:21:46;;;;;;;14.85;5.50;;;;;;;10.21;100.00;100754.88;1641249;86;21353;-81
2021/10/14 05:24:11;;;;;;;10.63;5.58;;;;;;;10.20;100.00;100765.34;1641305;86;20923;-82
2021/10/14 05:26:38;;;;;;;15.13;6.15;;;;;;;10.13;100.00;100766.90;1641360;86;21664;-82
2021/10/14 05:29:04;;;;;;;9.65;5.42;;;;;;;10.12;100.00;100776.05;1641091;87;21523;-82
2021/10/14 05:31:30;;;;;;;11.60;6.12;;;;;;;10.12;100.00;100782.79;1641358;86;20998;-83
2021/10/14 05:33:56;;;;;;;11.12;5.83;;;;;;;10.11;100.00;100790.56;1641155;86;21115;-82
2021/10/14 05:36:23;;;;;;;19.98;6.28;;;;;;;10.08;100.00;100790.27;1641224;86;21057;-83
2021/10/14 05:38:49;;;;;;;11.60;5.92;;;;;;;10.07;100.00;100795.38;1647146;86;21097;-82
2021/10/14 05:41:15;;;;;;;12.35;6.35;;;;;;;10.10;100.00;100797.03;1638125;86;20971;-82
2021/10/14 05:43:41;;;;;;;10.68;5.78;;;;;;;10.14;100.00;100800.02;1637898;86;20888;-82
2021/10/14 05:46:07;;;;;;;10.60;5.60;;;;;;;10.13;100.00;100806.48;1638433;86;22438;-82
2021/10/14 05:48:34;;;;;;;13.08;5.83;;;;;;;10.11;100.00;100817.49;1638251;87;21074;-82
2021/10/14 05:51:03;;;;;;;12.47;5.90;;;;;;;10.12;100.00;100823.72;1638075;87;20979;-82
2021/10/14 05:53:29;;;;;;;11.93;5.78;;;;;;;10.14;100.00;100833.14;1638281;87;22497;-82
2021/10/14 05:55:56;;;;;;;11.25;5.42;;;;;;;10.19;100.00;100827.83;1638308;86;21015;-83
2021/10/14 05:58:21;;;;;;;13.20;6.30;;;;;;;10.23;100.00;100837.05;1637916;86;21153;-83
2021/10/14 06:00:47;;;;;;;13.03;6.05;;;;;;;10.23;100.00;100843.79;1623651;87;20983;-82
2021/10/14 06:03:13;;;;;;;9.90;5.42;;;;;;;10.22;100.00;100848.06;1638259;86;20864;-83
2021/10/14 06:05:40;;;;;;;10.65;5.85;;;;;;;10.21;100.00;100854.52;1638516;87;20860;-83
2021/10/14 06:08:06;;;;;;;11.12;6.05;;;;;;;10.26;100.00;100863.99;1638342;86;21074;-82
2021/10/14 06:10:32;;;;;;;9.53;5.17;;;;;;;10.34;100.00;100873.55;1638121;87;21156;-82
2021/10/14 06:12:58;;;;;;;10.55;5.47;;;;;;;10.35;100.00;100874.66;1638045;87;21496;-82
2021/10/14 06:15:24;;;;;;;10.58;5.90;;;;;;;10.40;100.00;100881.98;1638616;87;20988;-81
2021/10/14 06:17:50;;;;;;;12.82;5.42;;;;;;;10.48;100.00;100883.42;1638401;87;21555;-81
2021/10/14 06:20:16;;;;;;;10.90;5.53;;;;;;;10.48;100.00;100892.32;1638490;86;20940;-82
2021/10/14 06:22:42;;;;;;;12.55;5.60;;;;;;;10.47;100.00;100898.78;1638425;86;21693;-81
2021/10/14 06:25:08;;;;;;;12.65;6.53;;;;;;;10.45;100.00;100911.69;1638327;86;21050;-81
2021/10/14 06:27:34;;;;;;;10.70;5.72;;;;;;;10.46;100.00;100918.69;1638108;86;21022;-81
2021/10/14 06:30:00;;;;;;;11.10;6.17;;;;;;;10.46;100.00;100924.08;1638439;86;20974;-83
2021/10/14 06:32:27;;;;;;;11.88;6.05;;;;;;;10.44;100.00;100923.00;1638445;87;20896;-81
2021/10/14 06:34:53;;;;;;;9.40;5.70;;;;;;;10.44;100.00;100926.20;1638467;86;21118;-81
2021/10/14 06:37:20;;;;;;;11.35;6.40;;;;;;;10.39;100.00;100936.94;1623670;87;21062;-80
2021/10/14 06:39:46;;;;;;;11.57;6.03;;;;;;;10.41;100.00;100934.78;1653597;84;22593;-81
2021/10/14 06:42:11;;;;;;;12.47;6.40;;;;;;;10.46;100.00;100949.67;1666897;84;20915;-81
2021/10/14 06:44:37;;;;;;;12.40;6.15;;;;;;;10.48;100.00;100956.98;1667005;84;21022;-80
2021/10/14 06:47:04;;;;;;;14.68;6.40;;;;;;;10.49;100.00;100953.75;1667021;86;21987;-80
2021/10/14 06:49:29;;;;;;;17.25;6.97;;;;;;;10.50;100.00;100960.77;1666718;84;21140;-80
2021/10/14 06:51:56;;;;;;;12.73;6.67;;;;;;;10.51;100.00;100956.48;1666884;84;20935;-81
2021/10/14 06:54:23;;;;;;;14.90;7.37;;;;;;;10.52;100.00;100965.38;1666944;84;21471;-83
2021/10/14 06:56:49;;;;;;;15.75;7.28;;;;;;;10.54;100.00;100965.95;1666993;84;21416;-81
2021/10/14 06:59:15;;;;;;;16.35;7.03;;;;;;;10.58;100.00;100977.31;1666936;84;22100;-81
2021/10/14 07:01:41;;;;;;;13.98;7.42;;;;;;;10.63;100.00;100986.01;1666972;84;20999;-81
2021/10/14 07:04:07;;;;;;;16.27;7.62;;;;;;;10.65;100.00;100982.54;1666917;84;21563;-81
2021/10/14 07:06:33;;;;;;;13.98;7.25;;;;;;;10.68;100.00;100986.08;1667060;84;20902;-81
2021/10/14 07:08:59;;;;;;;14.35;7.30;;;;;;;10.72;100.00;100995.28;1667005;84;21613;-81
2021/10/14 07:11:32;;;;;;;15.50;7.75;;;;;;;10.76;100.00;100982.92;1666958;84;21116;-82
2021/10/14 07:13:58;;;;;;;;;;;;;;;10.78;100.00;100979.98;1669004;84;20971;-81
2021/10/14 07:16:25;;;;;;;15.40;7.83;;;;;;;10.82;100.00;100992.70;1667006;85;20149;-82
2021/10/14 07:18:51;;;;;;;14.60;7.47;;;;;;;10.80;100.00;100990.80;1666605;84;20975;-81
2021/10/14 07:21:17;;;;;;;17.55;8.10;;;;;;;10.81;100.00;100999.16;1666831;84;20903;-81
2021/10/14 07:23:43;;;;;;;17.00;7.83;;;;;;;10.82;100.00;100997.28;1642127;84;21092;-81
2021/10/14 07:26:09;;;;;;;16.00;8.33;;;;;;;10.85;100.00;101008.91;1641943;84;20985;-82
2021/10/14 07:28:35;;;;;;;19.80;8.33;;;;;;;10.89;100.00;101008.70;1666718;84;21006;-81
2021/10/14 07:31:01;;;;;;;17.23;8.55;;;;;;;10.90;100.00;101015.72;1664683;84;21767;-81
2021/10/14 07:33:27;;;;;;;18.00;8.78;;;;;;;10.94;100.00;101026.81;1666923;84;20987;-81
2021/10/14 07:35:53;;;;;;;17.75;8.30;;;;;;;10.90;100.00;101028.66;1666949;84;21124;-80
2021/10/14 07:38:18;;;;;;;16.02;7.90;;;;;;;10.91;100.00;101033.01;1666847;84;20966;-81
2021/10/14 07:40:44;;;;;;;16.82;8.38;;;;;;;10.91;100.00;101037.56;1664708;86;20895;-81
2021/10/14 07:43:15;;;;;;;17.35;8.68;;;;;;;10.90;100.00;101049.42;1664440;84;21033;-81
2021/10/14 07:45:44;;;;;;;18.12;9.03;;;;;;;10.90;100.00;101053.47;1664730;84;21050;-80
2021/10/14 07:48:11;;;;;;;18.73;9.28;;;;;;;10.86;100.00;101062.59;1664173;84;21148;-81
2021/10/14 07:50:37;;;;;;;19.60;9.63;;;;;;;10.82;100.00;101057.40;1664403;84;21038;-82
2021/10/14 07:53:18;;;;;;;18.73;8.95;;;;;;;10.82;100.00;101065.48;1664483;84;21006;-83
2021/10/14 07:55:46;;;;;;;20.20;9.65;;;;;;;10.82;100.00;101054.70;1664591;84;21038;-82
2021/10/14 07:58:15;;;;;;;22.52;9.48;;;;;;;10.82;100.00;101073.58;1664550;84;21049;-82
2021/10/14 08:00:40;;;;;;;18.12;8.75;;;;;;;10.84;100.00;101078.73;1664150;85;21062;-82
2021/10/14 08:03:07;;;;;;;20.80;9.35;;;;;;;10.80;100.00;101083.81;1664428;84;20996;-82
2021/10/14 08:05:33;;;;;;;21.93;9.55;;;;;;;10.82;100.00;101089.75;1664138;84;21074;-82
2021/10/14 08:07:59;;;;;;;22.32;10.50;;;;;;;10.81;100.00;101085.97;1659592;86;21042;-82
2021/10/14 08:10:26;;;;;;;21.07;10.40;;;;;;;10.82;100.00;101098.37;1663894;84;21605;-82
2021/10/14 08:12:52;;;;;;;21.40;9.83;;;;;;;10.82;100.00;101107.28;1664357;86;21401;-82
2021/10/14 08:15:18;;;;;;;20.85;9.60;;;;;;;10.83;100.00;101102.19;1662734;84;20982;-84
2021/10/14 08:17:44;;;;;;;26.62;10.32;;;;;;;10.83;100.00;101108.12;1649155;84;21105;-83
2021/10/14 08:20:11;;;;;;;21.10;9.13;;;;;;;10.81;100.00;101115.09;1627409;86;20943;-82
2021/10/14 08:22:38;;;;;;;20.32;9.80;;;;;;;10.84;100.00;101113.78;1627519;86;20980;-82
2021/10/14 08:25:07;;;;;;;21.07;10.63;;;;;;;10.85;100.00;101120.80;1621844;87;20998;-82
2021/10/14 08:27:34;;;;;;;22.20;10.38;;;;;;;10.83;100.00;101128.34;1627291;86;21053;-82
2021/10/14 08:29:59;;;;;;;21.80;10.48;;;;;;;10.82;100.00;101132.08;1627550;86;21585;-82
2021/10/14 08:32:25;;;;;;;20.25;9.95;;;;;;;10.82;100.00;101141.52;1623797;86;21140;-81
2021/10/14 08:34:51;;;;;;;21.93;9.98;;;;;;;10.85;100.00;101145.06;1627409;86;20927;-82
2021/10/14 08:37:21;;;;;;;21.80;10.40;;;;;;;10.87;100.00;101148.34;1627390;86;21977;-82
2021/10/14 08:39:45;;;;;;;22.05;11.08;;;;;;;10.85;100.00;101153.99;1626354;86;21033;-81
2021/10/14 08:42:11;;;;;;;22.75;10.18;;;;;;;10.86;100.00;101163.70;1627268;86;21049;-81
2021/10/14 08:44:38;;;;;;;23.77;10.93;;;;;;;10.91;100.00;101168.34;1601969;88;20963;-81
2021/10/14 08:47:04;;;;;;;22.70;10.03;;;;;;;10.98;100.00;101173.58;1627313;86;20963;-82
2021/10/14 08:49:31;;;;;;;20.17;9.85;;;;;;;10.98;100.00;101175.73;1627297;86;21160;-82
2021/10/14 08:51:57;;;;;;;22.25;10.38;;;;;;;11.02;100.00;101184.95;1627679;86;21019;-81
2021/10/14 08:54:23;;;;;;;22.98;10.15;;;;;;;11.06;100.00;101192.02;1627565;86;21054;-81
2021/10/14 08:56:50;;;;;;;24.57;10.78;;;;;;;11.11;100.00;101196.14;1627624;86;21078;-82
2021/10/14 08:59:20;;;;;;;20.92;10.05;;;;;;;11.14;100.00;101202.38;1627343;86;21563;-82
2021/10/14 09:02:10;;;;;;;22.02;10.20;;;;;;;11.10;100.00;101206.66;1681932;84;21143;-82
2021/10/14 09:04:41;;;;;;;22.00;9.90;;;;;;;11.12;100.00;101211.28;1631112;87;21179;-84
2021/10/14 09:07:19;;;;;;;20.40;10.30;;;;;;;11.17;100.00;101213.21;1611657;89;21041;-82
2021/10/14 09:09:51;;;;;;;24.92;10.40;;;;;;;11.13;100.00;101220.45;1611473;89;21220;-82
2021/10/14 09:12:21;;;;;;;24.20;10.03;;;;;;;11.15;100.00;101226.97;1582418;90;21053;-83
2021/10/14 09:15:11;;;;;;;25.30;10.43;;;;;;;11.21;100.00;101231.37;1582641;90;21182;-83
2021/10/14 09:17:47;;;;;;;19.50;9.20;;;;;;;11.28;100.00;101225.25;1582571;90;21102;-83
2021/10/14 09:20:31;;;;;;;20.95;10.00;;;;;;;11.31;100.00;101240.94;1582567;90;21109;-83
2021/10/14 09:23:11;;;;;;;21.77;10.50;;;;;;;11.36;100.00;101254.51;1582767;90;21070;-83
2021/10/14 09:25:42;;;;;;;22.10;10.63;;;;;;;11.39;100.00;101249.69;1582601;90;21152;-83
2021/10/14 09:28:18;;;;;;;21.65;9.95;;;;;;;11.34;100.00;101235.58;1582485;90;21664;-82
2021/10/14 09:30:50;;;;;;;20.12;9.93;;;;;;;11.31;100.00;101236.89;1575226;89;21576;-84
2021/10/14 09:33:46;;;;;;;23.18;10.38;;;;;;;11.38;100.00;101232.66;1553969;89;21132;-83
2021/10/14 09:36:23;;;;;;;24.35;10.70;;;;;;;11.44;100.00;101239.78;1553640;90;21099;-84
2021/10/14 09:39:03;;;;;;;24.02;10.90;;;;;;;11.42;100.00;101246.49;1553279;90;21180;-84
2021/10/14 09:41:34;;;;;;;22.90;10.08;;;;;;;11.37;100.00;101256.13;1548487;90;21240;-82
2021/10/14 09:44:05;;;;;;;22.73;9.88;;;;;;;11.34;100.00;101255.28;1574782;90;21413;-82
2021/10/14 09:46:47;;;;;;;24.43;11.43;;;;;;;11.34;100.00;101264.73;1575018;90;22456;-83
2021/10/14 09:49:29;;;;;;;27.45;10.78;;;;;;;11.30;100.00;101262.25;1578465;90;21208;-84
2021/10/14 09:52:00;;;;;;;26.37;11.15;;;;;;;11.28;100.00;101268.42;1560781;91;21282;-83
2021/10/14 09:54:31;;;;;;;24.92;11.10;;;;;;;11.25;100.00;101272.15;1528423;92;21175;-83
2021/10/14 09:56:58;;;;;;;26.02;12.18;;;;;;;11.21;100.00;101275.06;1548245;92;21070;-83
2021/10/14 09:59:24;;;;;;;30.20;12.33;;;;;;;11.24;100.00;101278.63;1548353;92;21193;-82
2021/10/14 10:01:56;;;;;;;29.75;12.10;;;;;;;11.30;100.00;101284.37;1548265;92;21129;-82
2021/10/14 10:04:26;;;;;;;24.92;10.53;;;;;;;11.39;100.00;101284.77;1473296;94;21184;-83
2021/10/14 10:06:56;;;;;;;24.15;10.75;;;;;;;11.50;100.00;101287.87;1460916;96;21053;-82
2021/10/14 10:09:24;;;;;;;23.90;10.70;;;;;;;11.62;100.00;101294.01;1521291;92;21057;-81
2021/10/14 10:11:59;;;;;;;23.35;9.78;;;;;;;11.72;100.00;101308.17;1547605;92;21296;-82
2021/10/14 10:14:26;;;;;;;21.33;9.30;;;;;;;11.91;100.00;101303.30;1547521;92;21035;-82
2021/10/14 10:17:11;;;;;;;23.83;10.20;;;;;;;12.18;100.00;101306.89;1527513;92;21173;-83
2021/10/14 10:19:48;;;;;;;27.25;10.63;;;;;;;12.44;100.00;101299.03;1546879;91;21283;-83
2021/10/14 10:22:37;;;;;;;25.17;12.13;;;;;;;12.55;100.00;101302.67;1546604;91;21054;-81
2021/10/14 10:25:28;;;;;;;27.00;11.30;;;;;;;12.52;100.00;101309.40;1562907;90;21143;-82
2021/10/14 10:28:01;;;;;;;24.50;10.95;;;;;;;12.36;100.00;101323.30;1563119;90;21510;-82
2021/10/14 10:30:37;;;;;;;23.83;10.78;;;;;;;12.38;100.00;101327.09;1562919;90;21133;-83
2021/10/14 10:33:07;;;;;;;25.43;10.48;;;;;;;12.39;100.00;101326.03;1563068;90;21165;-82
2021/10/14 10:35:49;;;;;;;22.62;10.63;;;;;;;12.39;100.00;101324.69;1563055;90;21156;-82
2021/10/14 10:38:26;;;;;;;22.55;10.25;;;;;;;12.38;100.00;101334.69;1562776;90;21600;-82
2021/10/14 10:40:56;;;;;;;23.12;9.75;;;;;;;12.30;100.00;101344.59;1528191;93;20991;-82
2021/10/14 10:43:29;;;;;;;22.00;9.80;;;;;;;12.24;100.00;101346.95;1534301;93;21082;-83
2021/10/14 10:46:05;;;;;;;22.17;9.73;;;;;;;12.31;100.00;101353.50;1534213;93;21157;-82
2021/10/14 10:48:41;;;;;;;22.50;10.25;;;;;;;12.61;100.00;101359.78;1556851;92;21065;-83
2021/10/14 10:51:11;;;;;;;21.05;9.80;;;;;;;12.96;100.00;101360.67;1556848;92;21279;-83
2021/10/14 10:53:48;;;;;;;19.95;8.60;;;;;;;13.10;100.00;101361.06;1556447;92;21130;-83
2021/10/14 10:56:34;;;;;;;16.25;7.50;;;;;;;13.26;100.00;101351.20;1555750;92;21127;-82
2021/10/14 10:59:01;;;;;;;15.93;8.03;;;;;;;13.41;100.00;101345.89;1556187;92;21289;-83
2021/10/14 11:01:28;;;;;;;15.78;7.60;;;;;;;13.44;100.00;101352.69;1563726;90;21137;-81
2021/10/14 11:04:03;;;;;;;17.62;7.03;;;;;;;13.50;100.00;101355.70;1543557;93;21154;-81
2021/10/14 11:06:34;;;;;;;20.10;10.72;;;;;;;13.60;100.00;101364.73;1525568;93;21130;-82
2021/10/14 11:09:07;;;;;;;14.93;7.00;;;;;;;13.81;100.00;101364.85;1543303;92;21163;-81